Latest Weather Observations for St George

IDQ60801

Issued at 11:02 am EST Friday 12 February 2016 (issued every 30 minutes, with the page automatically refreshed every 10 minutes)

About weather observations | Map of weather stations | Latest weather observations for QLD | Other Formats
Station Details ID: 043109 Name: ST GEORGE AIRPORT Lat: -28.05 Lon: 148.59 Height: 198.5 m
Data from the previous 72 hours. | See also: Recent months at St George
Date/Time
EST
Temp
°C
App
Temp
°C
Dew
Point
Rel
Hum
%
Delta-T
°C
Wind Press
QNH
hPa
Press
MSL
hPa
Rain
since 9 am
mm
Dir
 
Spd
km/h
Gust
km/h
Spd
kts
Gust
kts
12/11:00am 29.7 28.7 13.5 37 9.7 NE 11 19 6 10 1013.5 - 0.0
12/10:30am 28.7 26.7 13.8 40 9.0 N 17 22 9 12 1013.9 - 0.0
12/10:00am 28.5 26.8 13.6 40 8.9 N 15 24 8 13 1014.1 - 0.0
12/09:30am 27.3 25.2 13.6 43 8.2 NNE 17 26 9 14 1014.3 - 0.0
12/09:00am 26.7 24.2 14.1 46 7.6 ENE 20 28 11 15 1014.2 1013.0 0.0
12/08:30am 26.0 23.9 15.1 51 6.6 NNE 20 28 11 15 1014.4 - 0.0
12/08:00am 25.5 23.7 15.5 54 6.1 NNE 19 32 10 17 1014.2 - 0.0
12/07:30am 24.2 22.4 15.9 59 5.1 NNE 20 30 11 16 1014.2 - 0.0
12/07:00am 23.6 22.4 16.1 62 4.6 NNE 17 28 9 15 1013.8 - 0.0
12/06:30am 22.5 21.8 16.3 68 3.8 NNE 15 20 8 11 1013.4 - 0.0
12/06:00am 21.9 21.8 16.0 69 3.6 NE 11 17 6 9 1013.2 1012.0 0.0
12/05:30am 21.9 21.7 15.7 68 3.7 NE 11 15 6 8 1013.0 - 0.0
12/05:00am 22.4 22.1 15.5 65 4.2 NE 11 17 6 9 1012.7 - 0.0
12/04:30am 22.9 22.1 15.0 61 4.7 NE 13 22 7 12 1012.2 - 0.0
12/04:00am 23.2 22.2 14.5 58 5.2 NE 13 20 7 11 1012.0 - 0.0
12/03:30am 23.6 22.0 14.0 55 5.7 NE 15 20 8 11 1011.5 - 0.0
12/03:00am 23.8 21.4 12.8 50 6.4 NE 17 24 9 13 1011.3 1010.0 0.0
12/02:30am 23.9 21.6 11.9 47 6.9 ENE 15 26 8 14 1011.2 - 0.0
12/02:00am 21.7 21.2 12.5 56 5.3 ENE 7 9 4 5 1011.2 - 0.0
12/01:30am 22.2 21.8 13.0 56 5.3 E 7 9 4 5 1011.4 - 0.0
12/01:00am 21.5 21.2 13.2 59 4.8 ESE 7 11 4 6 1011.6 - 0.0
12/12:30am 21.3 22.3 13.2 60 4.7 CALM 0 0 0 0 1011.5 - 0.0
12/12:00am 22.2 23.2 13.3 57 5.2 CALM 0 4 0 2 1011.6 1010.3 0.0
 
Date/Time
EST
Temp
°C
App
Temp
°C
Dew
Point
Rel
Hum
%
Delta-T
°C
Wind Press
QNH
hPa
Press
MSL
hPa
Rain
since 9 am
mm
Dir
 
Spd
km/h
Gust
km/h
Spd
kts
Gust
kts
11/11:30pm 22.5 22.3 13.0 55 5.5 NW 6 7 3 4 1011.8 - 0.0
11/11:00pm 22.5 22.7 13.0 55 5.5 NNE 4 11 2 6 1012.0 - 0.0
11/10:30pm 23.1 23.3 13.0 53 5.9 E 4 6 2 3 1011.8 - 0.0
11/10:00pm 24.2 23.8 12.5 48 6.8 ESE 6 6 3 3 1011.9 - 0.0
11/09:30pm 25.5 25.0 12.0 43 7.8 E 6 6 3 3 1011.6 - 0.0
11/09:00pm 26.7 26.0 12.0 40 8.5 SE 7 9 4 5 1011.4 1010.1 0.0
11/08:30pm 27.1 26.0 10.7 35 9.3 ESE 7 9 4 5 1010.8 - 0.0
11/08:00pm 28.2 27.2 10.4 33 10.1 ESE 6 7 3 4 1010.5 - 0.0
11/07:30pm 29.7 28.3 10.8 31 10.9 SE 9 11 5 6 1010.3 - 0.0
11/07:00pm 30.7 29.2 10.6 29 11.6 SE 9 11 5 6 1010.1 - 0.0
11/06:30pm 32.1 30.3 9.6 25 12.9 ESE 9 11 5 6 1009.7 - 0.0
11/06:00pm 32.3 30.1 9.2 24 13.2 ESE 11 15 6 8 1009.5 1008.3 0.0
11/05:30pm 33.5 29.9 8.2 21 14.2 ESE 17 22 9 12 1009.2 - 0.0
11/05:00pm 33.7 30.9 6.9 19 14.8 E 11 20 6 11 1009.1 - 0.0
11/04:30pm 33.9 30.4 7.0 19 14.9 E 15 22 8 12 1009.0 - 0.0
11/04:00pm 33.8 30.0 7.7 20 14.6 E 17 24 9 13 1009.3 - 0.0
11/03:30pm 33.6 29.4 8.3 21 14.3 E 20 30 11 16 1009.6 - 0.0
11/03:00pm 33.6 29.6 8.3 21 14.3 E 19 28 10 15 1009.7 1008.5 0.0
11/02:30pm 33.4 29.3 8.8 22 14.0 E 20 28 11 15 1010.2 - 0.0
11/02:00pm 33.0 28.9 8.5 22 13.8 ESE 20 30 11 16 1010.8 - 0.0
11/01:30pm 33.7 29.5 8.3 21 14.3 SE 20 30 11 16 1011.2 - 0.0
11/01:00pm 32.1 29.4 9.0 24 13.1 ESE 13 24 7 13 1011.7 - 0.0
11/12:30pm 31.6 29.7 11.9 30 11.7 NE 13 24 7 13 1011.9 - 0.0
11/12:00pm 31.6 31.0 13.4 33 11.0 NNW 9 13 5 7 1012.2 1010.9 0.0
11/11:30am 30.5 29.8 13.3 35 10.4 NNW 9 15 5 8 1012.7 - 0.0
11/11:00am 30.1 29.7 14.2 38 9.7 WNW 9 17 5 9 1013.0 - 0.0
11/10:30am 28.8 28.6 15.7 45 8.1 N 11 20 6 11 1013.4 - 0.0
11/10:00am 27.9 27.6 16.5 50 7.1 N 13 19 7 10 1013.6 - 0.0
11/09:30am 26.8 25.7 16.4 53 6.5 N 17 24 9 13 1013.5 - 0.0
11/09:00am 26.4 25.4 16.6 55 6.1 N 17 24 9 13 1013.5 1012.3 0.0
11/08:30am 25.5 23.6 15.8 55 6.0 N 20 30 11 16 1013.6 - 0.0
11/08:00am 25.0 23.5 16.7 60 5.2 NNE 20 28 11 15 1013.7 - 0.0
11/07:30am 23.6 22.1 15.4 60 5.0 NNE 17 24 9 13 1013.5 - 0.0
11/07:00am 22.7 22.2 15.0 61 4.6 NNE 11 17 6 9 1013.4 - 0.0
11/06:30am 21.7 21.5 14.6 64 4.2 NE 9 13 5 7 1012.9 - 0.0
11/06:00am 20.7 19.9 14.1 66 3.9 ENE 11 15 6 8 1012.5 1011.2 0.0
11/05:30am 20.7 20.1 13.4 63 4.2 NNE 9 13 5 7 1011.9 - 0.0
11/05:00am 21.7 20.6 13.1 58 5.0 NE 11 15 6 8 1011.7 - 0.0
11/04:30am 21.9 20.6 12.5 55 5.4 NE 11 15 6 8 1011.2 - 0.0
11/04:00am 22.8 21.0 12.1 51 6.1 NE 13 17 7 9 1010.8 - 0.0
11/03:30am 22.6 21.4 12.8 54 5.7 NE 11 15 6 8 1010.6 - 0.0
11/03:00am 19.6 19.5 14.0 70 3.3 E 7 9 4 5 1010.6 1009.4 0.0
11/02:30am 19.9 21.1 13.8 68 3.5 CALM 0 0 0 0 1010.6 - 0.0
11/02:00am 20.5 21.7 13.7 65 3.9 CALM 0 0 0 0 1010.8 - 0.0
11/01:30am 20.6 20.4 13.6 64 4.1 N 7 9 4 5 1011.0 - 0.0
11/01:00am 20.6 22.0 14.3 67 3.7 CALM 0 0 0 0 1011.3 - 0.0
11/12:30am 20.9 22.0 14.5 67 3.8 SE 2 6 1 3 1011.6 - 0.0
11/12:00am 20.7 21.2 13.9 65 4.0 S 4 7 2 4 1011.8 1010.5 0.0
 
Date/Time
EST
Temp
°C
App
Temp
°C
Dew
Point
Rel
Hum
%
Delta-T
°C
Wind Press
QNH
hPa
Press
MSL
hPa
Rain
since 9 am
mm
Dir
 
Spd
km/h
Gust
km/h
Spd
kts
Gust
kts
10/11:30pm 21.3 22.6 14.2 64 4.2 CALM 0 0 0 0 1012.1 - 0.0
10/11:00pm 22.0 23.4 14.4 62 4.5 CALM 0 0 0 0 1012.4 - 0.0
10/10:30pm 22.3 23.6 14.2 60 4.8 CALM 0 0 0 0 1012.3 - 0.0
10/10:00pm 22.5 23.7 13.8 58 5.1 CALM 0 0 0 0 1012.3 - 0.0
10/09:30pm 24.0 25.0 13.2 50 6.3 CALM 0 0 0 0 1012.3 - 0.0
10/09:00pm 24.4 25.5 13.6 51 6.4 CALM 0 0 0 0 1012.3 1011.0 0.0
10/08:30pm 25.4 25.4 12.3 44 7.6 S 4 9 2 5 1012.1 - 0.0
10/08:00pm 27.2 26.6 11.7 38 9.0 SE 6 7 3 4 1011.8 - 0.0
10/07:30pm 28.0 27.0 11.1 35 9.7 S 7 9 4 5 1011.6 - 0.0
10/07:00pm 29.1 27.6 10.7 32 10.6 SSE 9 11 5 6 1011.4 - 0.0
10/06:30pm 30.5 29.0 10.5 29 11.5 SSE 9 13 5 7 1011.0 - 0.0
10/06:00pm 31.2 29.2 10.0 27 12.2 SE 11 15 6 8 1010.7 1009.5 0.0
10/05:30pm 31.4 28.5 9.6 26 12.4 SE 15 19 8 10 1010.7 - 0.0
10/05:00pm 31.9 30.1 9.4 25 12.8 SE 9 19 5 10 1010.7 - 0.0
10/04:30pm 31.7 28.7 9.3 25 12.7 SE 15 24 8 13 1010.7 - 0.0
10/04:00pm 31.3 28.4 9.5 26 12.4 E 15 22 8 12 1010.7 - 0.0
10/03:30pm 31.6 28.5 10.3 27 12.3 S 17 24 9 13 1010.9 - 0.0
10/03:00pm 31.3 28.9 10.1 27 12.2 E 13 20 7 11 1011.3 1010.0 0.0
10/02:30pm 30.9 27.8 10.3 28 11.8 SE 17 26 9 14 1011.5 - 0.0
10/02:00pm 30.9 27.3 9.7 27 12.1 SE 19 28 10 15 1011.8 - 0.0
10/01:30pm 31.0 28.8 10.9 29 11.7 ESE 13 26 7 14 1012.3 - 0.0
10/01:00pm 30.9 30.0 11.3 30 11.5 E 7 17 4 9 1012.7 - 0.0
10/12:30pm 30.2 28.6 10.2 29 11.4 SE 9 19 5 10 1013.1 - 0.0
10/12:00pm 29.7 28.5 10.3 30 11.1 NNE 7 17 4 9 1013.7 1012.5 0.0
10/11:30am 28.9 26.4 9.6 30 10.9 E 13 20 7 11 1014.0 - 0.0
10/11:00am 28.6 27.0 10.3 32 10.4 NNE 9 17 5 9 1014.4 - 0.0
10/10:30am 28.1 26.0 9.9 32 10.3 E 11 20 6 11 1014.8 - 0.0
10/10:00am 27.2 25.0 10.8 36 9.3 NE 13 22 7 12 1015.0 - 0.0
10/09:30am 26.9 24.6 11.8 39 8.7 NE 15 28 8 15 1015.1 - 0.0
10/09:00am 25.7 22.4 11.5 41 8.1 NE 20 28 11 15 1015.3 1014.1 0.0
10/08:30am 24.8 21.8 12.1 45 7.3 NE 19 28 10 15 1015.3 - 0.0
10/08:00am 23.8 20.8 12.4 48 6.6 NE 20 35 11 19 1015.1 - 0.0
10/07:30am 23.2 21.1 12.5 51 6.2 NNE 15 24 8 13 1015.0 - 0.0
10/07:00am 22.4 21.7 13.2 56 5.3 NE 9 13 5 7 1014.9 - 0.0
10/06:30am 21.4 21.5 13.8 62 4.4 ENE 6 7 3 4 1014.7 - 0.0
10/06:00am 20.3 19.9 13.0 63 4.2 NE 7 9 4 5 1014.5 1013.3 0.0
10/05:30am 20.6 19.9 13.1 62 4.3 ENE 9 13 5 7 1014.0 - 0.0
10/05:00am 21.2 20.4 12.9 59 4.8 NE 9 13 5 7 1013.9 - 0.0
10/04:30am 21.6 20.1 13.0 58 5.0 NNE 13 19 7 10 1013.5 - 0.0
10/04:00am 22.3 20.2 12.5 53 5.6 NE 15 20 8 11 1013.5 - 0.0
10/03:30am 22.7 20.6 12.3 52 6.0 NE 15 22 8 12 1013.3 - 0.0
10/03:00am 23.3 20.9 12.6 51 6.2 ENE 17 28 9 15 1013.2 1012.0 0.0
10/02:30am 23.4 21.9 13.0 52 6.0 NE 13 20 7 11 1013.1 - 0.0
10/02:00am 24.0 21.7 12.9 50 6.5 ENE 17 24 9 13 1012.9 - 0.0
10/01:30am 24.2 22.2 12.8 49 6.6 ENE 15 20 8 11 1012.7 - 0.0
10/01:00am 23.7 22.9 13.0 51 6.2 NE 9 15 5 8 1012.7 - 0.0
10/12:30am 24.1 22.9 12.7 49 6.6 NE 11 17 6 9 1012.9 - 0.0
10/12:00am 22.7 22.3 14.0 58 5.1 E 9 13 5 7 1013.0 1011.8 0.0
 
Date/Time
EST
Temp
°C
App
Temp
°C
Dew
Point
Rel
Hum
%
Delta-T
°C
Wind Press
QNH
hPa
Press
MSL
hPa
Rain
since 9 am
mm
Dir
 
Spd
km/h
Gust
km/h
Spd
kts
Gust
kts
09/11:30pm 22.3 23.4 13.6 58 5.1 CALM 0 0 0 0 1013.1 - 0.0
09/11:00pm 22.1 23.1 14.2 61 4.7 ESE 2 6 1 3 1013.5 - 0.0
09/10:30pm 23.1 23.4 14.4 58 5.2 E 6 7 3 4 1013.7 - 0.0
09/10:00pm 23.8 24.4 13.1 51 6.2 E 2 6 1 3 1013.7 - 0.0
09/09:30pm 24.5 25.3 12.5 47 6.9 CALM 0 0 0 0 1013.8 - 0.0
09/09:00pm 26.6 25.4 9.5 34 9.5 E 6 7 3 4 1013.8 1012.6 0.0
09/08:30pm 27.3 25.4 9.2 32 10.0 E 9 11 5 6 1013.6 - 0.0
09/08:00pm 28.0 25.3 8.8 30 10.6 E 13 17 7 9 1013.6 - 0.0
09/07:30pm 28.9 25.7 8.6 28 11.2 E 15 19 8 10 1013.3 - 0.0
09/07:00pm 29.5 27.5 10.1 30 11.1 E 11 15 6 8 1013.1 - 0.0
09/06:30pm 30.8 28.1 9.1 26 12.2 E 13 19 7 10 1013.0 - 0.0
09/06:00pm 31.4 28.0 9.0 25 12.7 E 17 24 9 13 1012.8 1011.6 0.0
09/05:30pm 31.4 27.8 8.4 24 12.9 SE 17 22 9 12 1012.6 - 0.0
09/05:00pm 31.8 27.6 8.1 23 13.2 SE 20 30 11 16 1012.5 - 0.0
09/04:30pm 31.6 27.5 8.6 24 12.9 SE 20 30 11 16 1012.7 - 0.0
09/04:00pm 31.7 26.5 7.4 22 13.4 SE 24 32 13 17 1012.8 - 0.0
09/03:30pm 31.9 28.7 10.0 26 12.6 SSE 17 28 9 15 1013.1 - 0.0
09/03:00pm 31.2 26.6 8.2 24 12.8 SSE 22 32 12 17 1013.4 1012.2 0.0
09/02:30pm 32.0 28.1 9.5 25 12.8 SE 20 28 11 15 1013.6 - 0.0
09/02:00pm 30.8 27.6 11.2 30 11.4 E 19 32 10 17 1014.0 - 0.0
09/01:30pm 30.5 27.3 11.9 31 11.0 SE 20 32 11 17 1014.5 - 0.0
09/01:00pm 29.9 27.0 12.3 33 10.4 SE 19 28 10 15 1014.9 - 0.0
09/12:30pm 30.0 29.0 13.3 36 10.0 SE 11 30 6 16 1015.3 - 0.0
09/12:00pm 29.5 26.9 12.0 34 10.3 ESE 17 24 9 13 1015.7 1014.5 0.0
09/11:30am 29.1 27.5 12.9 37 9.6 E 13 22 7 12 1016.0 - 0.0

Other Formats:

Comma delimited format used in spreadsheet applications
http://www.bom.gov.au/fwo/IDQ60801/IDQ60801.94517.axf

JavaScript Object Notation format (JSON) in row-major order
http://www.bom.gov.au/fwo/IDQ60801/IDQ60801.94517.json